Flight Track Log - Related Links

Times and Time Zones

All times are in EDT time to prevent confusion due to time zone crossing. See the FDX1471 flight status page for this flight to view local times or setup timezone preferences in your user account.

Time Position Orientation Groundspeed Altitude Reporting Facility
EDT Latitude Longitude Course Direction KTS MPH feet Rate Location/Type
Sat 05:31:17 AM 35.0167 -89.9833 202° Southwest 185 213 1,300  Level KMEM
Sat 05:32:30 AM 34.9500 -90.0167 202° Southwest 261 300 4,700 3,476 Climbing KMEM
Sat 05:33:23 AM 34.9333 -90.1000 256° West 290 334 8,600 2,803 Climbing KMEM
Sat 05:34:32 AM 34.9383 -90.2075 273° West 320 368 10,400 2,279 Climbing Memphis Center
Sat 05:35:32 AM 34.9261 -90.3419 264° West 375 432 13,500 3,050 Climbing Memphis Center
Sat 05:36:32 AM 34.9175 -90.4811 266° West 409 471 16,500 2,750 Climbing Memphis Center
Sat 05:37:32 AM 34.9069 -90.6306 265° West 439 505 19,000 2,500 Climbing Memphis Center
Sat 05:38:32 AM 34.8939 -90.7825 264° West 456 525 21,500 2,607 Climbing Memphis Center
Sat 05:43:54 AM 34.7670 -91.6100 264° West 427 491 35,600 2,308 Climbing FlightAware ADS-B
Sat 05:44:49 AM 34.7490 -91.7230 259° West 428 493 36,000 205 Climbing FlightAware ADS-B
Sat 05:45:51 AM 34.7290 -91.8480 259° West 428 493 36,000  Level FlightAware ADS-B
Sat 05:46:39 AM 34.7140 -91.9450 259° West 428 493 36,000  Level FlightAware ADS-B
Sat 05:47:39 AM 34.6950 -92.0650 259° West 428 493 36,000  Level FlightAware ADS-B
Sat 05:48:15 AM 34.6830 -92.1370 259° West 428 493 36,000  Level FlightAware ADS-B
Sat 05:49:03 AM 34.6680 -92.2340 259° West 428 493 36,000  Level FlightAware ADS-B
Sat 05:49:39 AM 34.6560 -92.3060 259° West 428 493 36,000  Level FlightAware ADS-B
Sat 05:50:35 AM 34.6380 -92.4190 259° West 428 493 36,000  Level FlightAware ADS-B
Sat 05:51:23 AM 34.6230 -92.5150 259° West 428 493 36,000  Level FlightAware ADS-B
Sat 05:52:01 AM 34.6100 -92.5910 258° West 428 493 36,000  Level FlightAware ADS-B
Sat 05:52:38 AM 34.5990 -92.6660 260° West 428 493 36,000  Level FlightAware ADS-B
Sat 05:53:27 AM 34.5830 -92.7640 259° West 428 493 36,000  Level FlightAware ADS-B
Sat 05:54:03 AM 34.5710 -92.8360 259° West 428 493 36,000  Level FlightAware ADS-B
Sat 05:54:32 AM 34.4328 -93.0969 259° West 442 509 36,000  Level Memphis Center
Sat 05:55:32 AM 34.3964 -93.2367 253° West 442 509 36,000  Level Memphis Center
Sat 05:56:32 AM 34.3575 -93.3761 251° West 437 503 36,000 -61 Level Memphis Center
Sat 05:57:10 AM 34.3331 -93.4828 255° West 443 510 35,900 -61 Descending Fort Worth Center
Sat 05:58:10 AM 34.2933 -93.6203 251° West 443 510 35,900 15 Level Fort Worth Center
Sat 06:03:39 AM 34.0030 -94.3550 251° West 444 511 36,000 16 Climbing FlightAware ADS-B
Sat 06:04:19 AM 33.9700 -94.4450 246° West 443 510 36,000  Level FlightAware ADS-B
Sat 06:05:05 AM 33.9350 -94.5500 248° West 442 509 36,000 -242 Level FlightAware ADS-B
Sat 06:05:58 AM 33.8920 -94.6730 247° West 442 509 35,600 -551 Descending FlightAware ADS-B
Sat 06:06:43 AM 33.8560 -94.7760 247° West 448 516 35,100 -727 Descending FlightAware ADS-B
Sat 06:07:04 AM 33.8394 -94.8243 248° West 449 517 34,800 -835 Descending FlightAware ADS-B
Sat 06:08:02 AM 33.7926 -94.9578 247° West 450 518 34,000 -1,049 Descending FlightAware ADS-B
Sat 06:08:47 AM 33.7560 -95.0619 247° West 454 522 33,000 -1,906 Descending FlightAware ADS-B
Sat 06:09:27 AM 33.7230 -95.1560 247° West 464 534 31,300 -2,586 Descending FlightAware ADS-B
Sat 06:09:45 AM 33.7075 -95.1987 246° West 460 529 30,500 -2,442 Descending FlightAware ADS-B
Sat 06:10:53 AM 33.6510 -95.3560 247° West 455 524 27,800 -2,312 Descending FlightAware ADS-B
Sat 06:11:34 AM 33.6180 -95.4500 247° West 442 509 26,300 -2,233 Descending FlightAware ADS-B
Sat 06:12:19 AM 33.5820 -95.5500 247° West 430 495 24,600 -2,259 Descending FlightAware ADS-B
Sat 06:12:59 AM 33.5500 -95.6390 247° West 419 482 23,100 -2,241 Descending FlightAware ADS-B
Sat 06:13:42 AM 33.5180 -95.7280 247° West 415 478 21,500 -2,286 Descending FlightAware ADS-B
Sat 06:14:23 AM 33.4860 -95.8170 247° West 427 491 19,900 -2,429 Descending FlightAware ADS-B
Sat 06:15:06 AM 33.4520 -95.9090 246° West 433 498 18,100 -2,429 Descending FlightAware ADS-B
Sat 06:15:47 AM 33.4200 -95.9990 247° West 421 484 16,500 -2,341 Descending FlightAware ADS-B
Sat 06:16:28 AM 33.3890 -96.0850 247° West 408 470 14,900 -2,313 Descending FlightAware ADS-B
Sat 06:17:10 AM 33.3580 -96.1710 247° West 394 453 13,300 -2,214 Descending FlightAware ADS-B
Sat 06:17:52 AM 33.3270 -96.2540 246° West 371 427 11,800 -1,553 Descending FlightAware ADS-B
Sat 06:18:35 AM 33.3000 -96.3280 246° West 323 372 11,100 -795 Descending FlightAware ADS-B
Sat 06:19:15 AM 33.2770 -96.3890 246° West 275 316 10,700 -565 Descending FlightAware ADS-B
Sat 06:20:00 AM 33.2550 -96.4530 248° West 276 318 10,300 -424 Descending FlightAware ADS-B
Sat 06:20:40 AM 33.2350 -96.5090 247° West 274 315 10,100 -643 Descending FlightAware ADS-B
Sat 06:20:56 AM 33.2260 -96.5310 244° Southwest 277 319 9,700 -1,286 Descending FlightAware ADS-B
Sat 06:21:22 AM 33.2130 -96.5670 247° West 271 312 9,200 -1,091 Descending FlightAware ADS-B
Sat 06:21:51 AM 33.1980 -96.6050 245° Southwest 269 310 8,700 -1,241 Descending FlightAware ADS-B
Sat 06:22:20 AM 33.1850 -96.6420 247° West 268 308 8,000 -1,393 Descending FlightAware ADS-B
Sat 06:22:47 AM 33.1700 -96.6820 246° West 273 314 7,400 -1,309 Descending FlightAware ADS-B
Sat 06:23:15 AM 33.1560 -96.7200 246° West 266 306 6,800 -1,158 Descending FlightAware ADS-B
Sat 06:23:44 AM 33.1420 -96.7590 247° West 261 300 6,300 -1,077 Descending FlightAware ADS-B
Sat 06:23:54 AM 33.1370 -96.7740 248° West 259 298 6,100 -1,200 Descending FlightAware ADS-B
Sat 06:24:24 AM 33.1230 -96.8110 246° West 251 289 5,500 -1,345 Descending FlightAware ADS-B
Sat 06:24:52 AM 33.1100 -96.8490 248° West 253 291 4,800 -1,176 Descending FlightAware ADS-B
Sat 06:25:15 AM 33.0990 -96.8770 245° Southwest 242 278 4,500 -282 Descending FlightAware ADS-B
Sat 06:26:17 AM 33.0940 -96.8880 242° Southwest 236 272 4,400 -733 Descending FlightAware ADS-B
Sat 06:26:45 AM 33.0600 -96.9780 246° West 218 251 3,400 -1,500 Descending FlightAware ADS-B
Sat 06:27:13 AM 33.0490 -97.0080 246° West 199 229 3,000 -818 Descending FlightAware ADS-B
Sat 06:27:29 AM 33.0390 -97.0200 225° Southwest 185 213 2,800 -667 Descending FlightAware ADS-B
Sat 06:27:40 AM 33.0300 -97.0240 200° South 174 200 2,700 -1,077 Descending FlightAware ADS-B
Sat 06:28:08 AM 33.0090 -97.0250 182° South 159 183 2,100 -982 Descending FlightAware ADS-B
Sat 06:28:35 AM 32.9910 -97.0260 183° South 145 167 1,800 -649 Descending FlightAware ADS-B
Sat 06:28:45 AM 32.9840 -97.0260 180° South 146 168 1,700 -698 Descending FlightAware ADS-B
Sat 06:29:18 AM 32.9600 -97.0260 180° South 149 171 1,300 -484 Descending FlightAware ADS-B
Sat 06:29:47 AM 32.9430 -97.0260 180° South 147 169 1,200 -577 Descending FlightAware ADS-B
Sat 06:30:10 AM 32.9267 -97.0272 180° South 147 169 800 -1,043 Descending Fort Worth Center
Sat 06:32:00 AM 32.8968 -97.0380 192° South  Level Estimated

Login

Don't have an account? Register now (free) for customized features, flight alerts, and more!